sensor_id;sensor_type;location;lat;lon;timestamp;P1;durP1;ratioP1;P2;durP2;ratioP2
40675;SDS011;26359;48.750;9.314;2024-01-11T00:00:36;67.45;;;34.33;;
40675;SDS011;26359;48.750;9.314;2024-01-11T00:03:01;67.78;;;35.65;;
40675;SDS011;26359;48.750;9.314;2024-01-11T00:05:27;68.00;;;35.70;;
40675;SDS011;26359;48.750;9.314;2024-01-11T00:07:52;68.22;;;35.65;;
40675;SDS011;26359;48.750;9.314;2024-01-11T00:10:18;71.63;;;35.88;;
40675;SDS011;26359;48.750;9.314;2024-01-11T00:12:44;70.45;;;35.17;;
40675;SDS011;26359;48.750;9.314;2024-01-11T00:15:09;70.22;;;37.30;;
40675;SDS011;26359;48.750;9.314;2024-01-11T00:17:35;69.03;;;37.38;;
40675;SDS011;26359;48.750;9.314;2024-01-11T00:20:01;65.90;;;36.15;;
40675;SDS011;26359;48.750;9.314;2024-01-11T00:22:27;69.95;;;36.10;;
40675;SDS011;26359;48.750;9.314;2024-01-11T00:24:53;70.85;;;36.70;;
40675;SDS011;26359;48.750;9.314;2024-01-11T00:27:18;74.97;;;36.97;;
40675;SDS011;26359;48.750;9.314;2024-01-11T00:29:44;63.88;;;33.40;;
40675;SDS011;26359;48.750;9.314;2024-01-11T00:32:09;70.15;;;35.63;;
40675;SDS011;26359;48.750;9.314;2024-01-11T00:34:35;68.63;;;34.67;;
40675;SDS011;26359;48.750;9.314;2024-01-11T00:37:01;70.38;;;35.72;;
40675;SDS011;26359;48.750;9.314;2024-01-11T00:39:26;67.53;;;35.17;;
40675;SDS011;26359;48.750;9.314;2024-01-11T00:41:52;70.88;;;36.33;;
40675;SDS011;26359;48.750;9.314;2024-01-11T00:44:17;64.88;;;33.10;;
40675;SDS011;26359;48.750;9.314;2024-01-11T00:46:43;66.40;;;34.95;;
40675;SDS011;26359;48.750;9.314;2024-01-11T00:49:08;70.90;;;36.67;;
40675;SDS011;26359;48.750;9.314;2024-01-11T00:51:34;69.07;;;36.35;;
40675;SDS011;26359;48.750;9.314;2024-01-11T00:53:59;68.63;;;35.85;;
40675;SDS011;26359;48.750;9.314;2024-01-11T00:56:25;71.30;;;35.70;;
40675;SDS011;26359;48.750;9.314;2024-01-11T00:58:51;69.43;;;36.00;;
40675;SDS011;26359;48.750;9.314;2024-01-11T01:01:16;69.85;;;36.85;;
40675;SDS011;26359;48.750;9.314;2024-01-11T01:03:42;65.28;;;34.72;;
40675;SDS011;26359;48.750;9.314;2024-01-11T01:06:07;66.75;;;35.13;;
40675;SDS011;26359;48.750;9.314;2024-01-11T01:08:33;66.03;;;34.22;;
40675;SDS011;26359;48.750;9.314;2024-01-11T01:10:58;66.20;;;35.45;;
40675;SDS011;26359;48.750;9.314;2024-01-11T01:13:24;65.03;;;33.25;;
40675;SDS011;26359;48.750;9.314;2024-01-11T01:15:50;67.82;;;35.05;;
40675;SDS011;26359;48.750;9.314;2024-01-11T01:18:15;64.85;;;34.47;;
40675;SDS011;26359;48.750;9.314;2024-01-11T01:20:41;68.35;;;34.63;;
40675;SDS011;26359;48.750;9.314;2024-01-11T01:23:06;69.75;;;35.03;;
40675;SDS011;26359;48.750;9.314;2024-01-11T01:25:32;69.38;;;34.80;;
40675;SDS011;26359;48.750;9.314;2024-01-11T01:28:00;73.05;;;36.15;;
40675;SDS011;26359;48.750;9.314;2024-01-11T01:30:26;72.90;;;36.42;;
40675;SDS011;26359;48.750;9.314;2024-01-11T01:32:52;75.63;;;36.53;;
40675;SDS011;26359;48.750;9.314;2024-01-11T01:35:18;70.28;;;35.22;;
40675;SDS011;26359;48.750;9.314;2024-01-11T01:37:43;74.00;;;37.42;;
40675;SDS011;26359;48.750;9.314;2024-01-11T01:40:09;67.03;;;34.63;;
40675;SDS011;26359;48.750;9.314;2024-01-11T01:42:35;71.78;;;35.47;;
40675;SDS011;26359;48.750;9.314;2024-01-11T01:45:05;68.45;;;35.40;;
40675;SDS011;26359;48.750;9.314;2024-01-11T01:47:31;68.35;;;35.88;;
40675;SDS011;26359;48.750;9.314;2024-01-11T01:49:57;70.07;;;35.42;;
40675;SDS011;26359;48.750;9.314;2024-01-11T01:52:22;76.13;;;37.15;;
40675;SDS011;26359;48.750;9.314;2024-01-11T01:54:49;68.68;;;35.17;;
40675;SDS011;26359;48.750;9.314;2024-01-11T01:57:15;74.82;;;35.60;;
40675;SDS011;26359;48.750;9.314;2024-01-11T01:59:43;71.00;;;35.10;;
40675;SDS011;26359;48.750;9.314;2024-01-11T02:02:11;66.90;;;34.55;;
40675;SDS011;26359;48.750;9.314;2024-01-11T02:04:37;71.93;;;36.38;;
40675;SDS011;26359;48.750;9.314;2024-01-11T02:07:03;72.65;;;35.22;;
40675;SDS011;26359;48.750;9.314;2024-01-11T02:09:30;76.03;;;35.88;;
40675;SDS011;26359;48.750;9.314;2024-01-11T02:11:56;72.97;;;36.85;;
40675;SDS011;26359;48.750;9.314;2024-01-11T02:14:22;76.20;;;35.70;;
40675;SDS011;26359;48.750;9.314;2024-01-11T02:16:49;74.93;;;36.63;;
40675;SDS011;26359;48.750;9.314;2024-01-11T02:19:14;71.00;;;34.72;;
40675;SDS011;26359;48.750;9.314;2024-01-11T02:21:43;76.78;;;37.17;;
40675;SDS011;26359;48.750;9.314;2024-01-11T02:24:11;70.47;;;35.67;;
40675;SDS011;26359;48.750;9.314;2024-01-11T02:26:36;74.03;;;36.33;;
40675;SDS011;26359;48.750;9.314;2024-01-11T02:29:22;73.07;;;36.28;;
40675;SDS011;26359;48.750;9.314;2024-01-11T02:31:47;71.88;;;36.85;;
40675;SDS011;26359;48.750;9.314;2024-01-11T02:34:13;73.03;;;35.53;;
40675;SDS011;26359;48.750;9.314;2024-01-11T02:36:38;73.97;;;36.17;;
40675;SDS011;26359;48.750;9.314;2024-01-11T02:39:04;70.35;;;34.95;;
40675;SDS011;26359;48.750;9.314;2024-01-11T02:41:30;68.85;;;37.42;;
40675;SDS011;26359;48.750;9.314;2024-01-11T02:43:57;67.47;;;35.35;;
40675;SDS011;26359;48.750;9.314;2024-01-11T02:46:23;74.65;;;36.30;;
40675;SDS011;26359;48.750;9.314;2024-01-11T02:48:49;77.85;;;34.90;;
40675;SDS011;26359;48.750;9.314;2024-01-11T02:51:15;67.25;;;33.40;;
40675;SDS011;26359;48.750;9.314;2024-01-11T02:53:40;69.97;;;34.28;;
40675;SDS011;26359;48.750;9.314;2024-01-11T02:56:06;67.95;;;34.05;;
40675;SDS011;26359;48.750;9.314;2024-01-11T02:58:31;67.70;;;35.15;;
40675;SDS011;26359;48.750;9.314;2024-01-11T03:00:57;69.97;;;35.63;;
40675;SDS011;26359;48.750;9.314;2024-01-11T03:03:22;69.90;;;34.13;;
40675;SDS011;26359;48.750;9.314;2024-01-11T03:05:48;74.35;;;36.17;;
40675;SDS011;26359;48.750;9.314;2024-01-11T03:08:13;71.65;;;34.88;;
40675;SDS011;26359;48.750;9.314;2024-01-11T03:10:39;71.20;;;36.55;;
40675;SDS011;26359;48.750;9.314;2024-01-11T03:13:05;73.03;;;36.25;;
40675;SDS011;26359;48.750;9.314;2024-01-11T03:15:32;68.40;;;35.13;;
40675;SDS011;26359;48.750;9.314;2024-01-11T03:17:57;70.90;;;33.97;;
40675;SDS011;26359;48.750;9.314;2024-01-11T03:20:23;71.93;;;35.78;;
40675;SDS011;26359;48.750;9.314;2024-01-11T03:22:50;66.97;;;35.10;;
40675;SDS011;26359;48.750;9.314;2024-01-11T03:25:16;67.28;;;34.38;;
40675;SDS011;26359;48.750;9.314;2024-01-11T03:27:42;69.00;;;34.17;;
40675;SDS011;26359;48.750;9.314;2024-01-11T03:30:07;69.88;;;35.40;;
40675;SDS011;26359;48.750;9.314;2024-01-11T03:32:33;72.18;;;35.80;;
40675;SDS011;26359;48.750;9.314;2024-01-11T03:34:59;70.28;;;34.65;;
40675;SDS011;26359;48.750;9.314;2024-01-11T03:37:24;73.05;;;36.25;;
40675;SDS011;26359;48.750;9.314;2024-01-11T03:39:50;70.43;;;34.20;;
40675;SDS011;26359;48.750;9.314;2024-01-11T03:42:15;69.82;;;33.65;;
40675;SDS011;26359;48.750;9.314;2024-01-11T03:44:41;72.38;;;34.45;;
40675;SDS011;26359;48.750;9.314;2024-01-11T03:47:07;75.32;;;35.80;;
40675;SDS011;26359;48.750;9.314;2024-01-11T03:49:32;75.40;;;37.08;;
40675;SDS011;26359;48.750;9.314;2024-01-11T03:51:58;76.13;;;35.80;;
40675;SDS011;26359;48.750;9.314;2024-01-11T03:54:23;72.78;;;34.90;;
40675;SDS011;26359;48.750;9.314;2024-01-11T03:56:49;73.13;;;34.53;;
40675;SDS011;26359;48.750;9.314;2024-01-11T03:59:15;70.18;;;34.10;;
40675;SDS011;26359;48.750;9.314;2024-01-11T04:01:40;74.63;;;34.35;;
40675;SDS011;26359;48.750;9.314;2024-01-11T04:04:06;72.82;;;34.55;;
40675;SDS011;26359;48.750;9.314;2024-01-11T04:06:32;67.13;;;33.45;;
40675;SDS011;26359;48.750;9.314;2024-01-11T04:08:57;73.00;;;36.03;;
40675;SDS011;26359;48.750;9.314;2024-01-11T04:11:26;73.50;;;35.10;;
40675;SDS011;26359;48.750;9.314;2024-01-11T04:13:52;68.90;;;34.47;;
40675;SDS011;26359;48.750;9.314;2024-01-11T04:16:18;71.18;;;34.13;;
40675;SDS011;26359;48.750;9.314;2024-01-11T04:18:44;71.82;;;34.38;;
40675;SDS011;26359;48.750;9.314;2024-01-11T04:21:19;72.70;;;34.72;;
40675;SDS011;26359;48.750;9.314;2024-01-11T04:23:46;75.03;;;35.25;;
40675;SDS011;26359;48.750;9.314;2024-01-11T04:26:11;70.13;;;34.42;;
40675;SDS011;26359;48.750;9.314;2024-01-11T04:28:37;72.55;;;35.22;;
40675;SDS011;26359;48.750;9.314;2024-01-11T04:31:02;76.18;;;37.08;;
40675;SDS011;26359;48.750;9.314;2024-01-11T04:33:28;80.60;;;36.90;;
40675;SDS011;26359;48.750;9.314;2024-01-11T04:35:54;75.30;;;36.35;;
40675;SDS011;26359;48.750;9.314;2024-01-11T04:38:19;73.60;;;35.17;;
40675;SDS011;26359;48.750;9.314;2024-01-11T04:40:44;71.47;;;34.38;;
40675;SDS011;26359;48.750;9.314;2024-01-11T04:43:10;71.63;;;34.92;;
40675;SDS011;26359;48.750;9.314;2024-01-11T04:45:35;67.63;;;33.92;;
40675;SDS011;26359;48.750;9.314;2024-01-11T04:48:01;72.70;;;34.88;;
40675;SDS011;26359;48.750;9.314;2024-01-11T04:50:27;71.43;;;34.35;;
40675;SDS011;26359;48.750;9.314;2024-01-11T04:52:52;69.45;;;33.22;;
40675;SDS011;26359;48.750;9.314;2024-01-11T04:55:18;75.65;;;35.97;;
40675;SDS011;26359;48.750;9.314;2024-01-11T04:57:43;71.35;;;34.20;;
40675;SDS011;26359;48.750;9.314;2024-01-11T05:00:09;73.68;;;33.65;;
40675;SDS011;26359;48.750;9.314;2024-01-11T05:02:35;66.75;;;33.67;;
40675;SDS011;26359;48.750;9.314;2024-01-11T05:05:00;69.25;;;34.67;;
40675;SDS011;26359;48.750;9.314;2024-01-11T05:07:27;68.70;;;34.45;;
40675;SDS011;26359;48.750;9.314;2024-01-11T05:09:52;74.80;;;34.75;;
40675;SDS011;26359;48.750;9.314;2024-01-11T05:12:18;71.22;;;34.92;;
40675;SDS011;26359;48.750;9.314;2024-01-11T05:14:43;68.53;;;33.10;;
40675;SDS011;26359;48.750;9.314;2024-01-11T05:17:09;76.60;;;35.97;;
40675;SDS011;26359;48.750;9.314;2024-01-11T05:19:34;71.35;;;37.70;;
40675;SDS011;26359;48.750;9.314;2024-01-11T05:22:00;69.95;;;35.67;;
40675;SDS011;26359;48.750;9.314;2024-01-11T05:24:25;74.20;;;34.92;;
40675;SDS011;26359;48.750;9.314;2024-01-11T05:26:51;75.05;;;35.67;;
40675;SDS011;26359;48.750;9.314;2024-01-11T05:29:16;73.30;;;36.13;;
40675;SDS011;26359;48.750;9.314;2024-01-11T05:31:42;70.20;;;34.95;;
40675;SDS011;26359;48.750;9.314;2024-01-11T05:34:07;74.28;;;36.72;;
40675;SDS011;26359;48.750;9.314;2024-01-11T05:36:37;68.55;;;35.35;;
40675;SDS011;26359;48.750;9.314;2024-01-11T05:39:02;61.45;;;32.58;;
40675;SDS011;26359;48.750;9.314;2024-01-11T05:41:28;70.15;;;35.08;;
40675;SDS011;26359;48.750;9.314;2024-01-11T05:43:53;71.90;;;36.15;;
40675;SDS011;26359;48.750;9.314;2024-01-11T05:46:19;71.40;;;34.95;;
40675;SDS011;26359;48.750;9.314;2024-01-11T05:48:45;70.38;;;34.05;;
40675;SDS011;26359;48.750;9.314;2024-01-11T05:51:10;71.78;;;34.83;;
40675;SDS011;26359;48.750;9.314;2024-01-11T05:53:36;70.70;;;35.33;;
40675;SDS011;26359;48.750;9.314;2024-01-11T05:56:02;72.00;;;36.80;;
40675;SDS011;26359;48.750;9.314;2024-01-11T05:58:33;71.82;;;34.65;;
40675;SDS011;26359;48.750;9.314;2024-01-11T06:00:58;70.05;;;34.28;;
40675;SDS011;26359;48.750;9.314;2024-01-11T06:03:24;73.47;;;36.58;;
40675;SDS011;26359;48.750;9.314;2024-01-11T06:05:50;72.60;;;35.00;;
40675;SDS011;26359;48.750;9.314;2024-01-11T06:08:15;74.57;;;35.42;;
40675;SDS011;26359;48.750;9.314;2024-01-11T06:10:41;73.20;;;35.35;;
40675;SDS011;26359;48.750;9.314;2024-01-11T06:13:07;71.53;;;33.97;;
40675;SDS011;26359;48.750;9.314;2024-01-11T06:15:33;74.13;;;35.13;;
40675;SDS011;26359;48.750;9.314;2024-01-11T06:17:59;73.00;;;35.08;;
40675;SDS011;26359;48.750;9.314;2024-01-11T06:20:25;73.22;;;34.22;;
40675;SDS011;26359;48.750;9.314;2024-01-11T06:22:50;68.90;;;34.00;;
40675;SDS011;26359;48.750;9.314;2024-01-11T06:25:16;71.03;;;34.28;;
40675;SDS011;26359;48.750;9.314;2024-01-11T06:27:42;69.40;;;35.15;;
40675;SDS011;26359;48.750;9.314;2024-01-11T06:30:08;72.97;;;34.22;;
40675;SDS011;26359;48.750;9.314;2024-01-11T06:32:34;75.93;;;35.70;;
40675;SDS011;26359;48.750;9.314;2024-01-11T06:35:00;73.50;;;35.28;;
40675;SDS011;26359;48.750;9.314;2024-01-11T06:37:27;73.95;;;37.30;;
40675;SDS011;26359;48.750;9.314;2024-01-11T06:39:52;71.03;;;37.05;;
40675;SDS011;26359;48.750;9.314;2024-01-11T06:42:18;74.28;;;36.00;;
40675;SDS011;26359;48.750;9.314;2024-01-11T06:44:43;76.88;;;35.50;;
40675;SDS011;26359;48.750;9.314;2024-01-11T06:47:09;70.63;;;33.50;;
40675;SDS011;26359;48.750;9.314;2024-01-11T06:49:37;73.43;;;35.42;;
40675;SDS011;26359;48.750;9.314;2024-01-11T06:52:03;73.03;;;37.75;;
40675;SDS011;26359;48.750;9.314;2024-01-11T06:54:29;73.78;;;37.70;;
40675;SDS011;26359;48.750;9.314;2024-01-11T06:56:56;74.78;;;37.70;;
40675;SDS011;26359;48.750;9.314;2024-01-11T06:59:21;77.07;;;37.80;;
40675;SDS011;26359;48.750;9.314;2024-01-11T07:01:47;78.47;;;37.95;;
40675;SDS011;26359;48.750;9.314;2024-01-11T07:04:12;75.80;;;37.35;;
40675;SDS011;26359;48.750;9.314;2024-01-11T07:06:38;78.68;;;37.90;;
40675;SDS011;26359;48.750;9.314;2024-01-11T07:09:03;75.82;;;37.38;;
40675;SDS011;26359;48.750;9.314;2024-01-11T07:11:30;81.15;;;37.53;;
40675;SDS011;26359;48.750;9.314;2024-01-11T07:13:57;78.43;;;39.08;;
40675;SDS011;26359;48.750;9.314;2024-01-11T07:16:22;72.88;;;36.90;;
40675;SDS011;26359;48.750;9.314;2024-01-11T07:18:48;73.63;;;38.10;;
40675;SDS011;26359;48.750;9.314;2024-01-11T07:21:19;81.57;;;36.45;;
40675;SDS011;26359;48.750;9.314;2024-01-11T07:23:54;75.75;;;35.40;;
40675;SDS011;26359;48.750;9.314;2024-01-11T07:26:20;78.40;;;36.00;;
40675;SDS011;26359;48.750;9.314;2024-01-11T07:28:45;74.72;;;36.33;;
40675;SDS011;26359;48.750;9.314;2024-01-11T07:31:11;78.05;;;36.55;;
40675;SDS011;26359;48.750;9.314;2024-01-11T07:33:36;80.28;;;37.70;;
40675;SDS011;26359;48.750;9.314;2024-01-11T07:36:02;81.63;;;37.85;;
40675;SDS011;26359;48.750;9.314;2024-01-11T07:38:27;79.93;;;39.67;;
40675;SDS011;26359;48.750;9.314;2024-01-11T07:40:53;80.88;;;38.28;;
40675;SDS011;26359;48.750;9.314;2024-01-11T07:43:18;72.97;;;37.08;;
40675;SDS011;26359;48.750;9.314;2024-01-11T07:45:44;74.03;;;38.53;;
40675;SDS011;26359;48.750;9.314;2024-01-11T07:48:09;78.65;;;36.53;;
40675;SDS011;26359;48.750;9.314;2024-01-11T07:50:35;80.40;;;38.55;;
40675;SDS011;26359;48.750;9.314;2024-01-11T07:53:00;161.27;;;70.78;;
40675;SDS011;26359;48.750;9.314;2024-01-11T07:55:26;147.45;;;66.18;;
40675;SDS011;26359;48.750;9.314;2024-01-11T07:57:51;104.03;;;47.63;;
40675;SDS011;26359;48.750;9.314;2024-01-11T08:00:17;87.75;;;43.30;;
40675;SDS011;26359;48.750;9.314;2024-01-11T08:02:43;76.22;;;37.47;;
40675;SDS011;26359;48.750;9.314;2024-01-11T08:05:08;78.28;;;38.45;;
40675;SDS011;26359;48.750;9.314;2024-01-11T08:07:34;80.88;;;38.92;;
40675;SDS011;26359;48.750;9.314;2024-01-11T08:10:00;81.20;;;39.05;;
40675;SDS011;26359;48.750;9.314;2024-01-11T08:12:26;84.90;;;40.13;;
40675;SDS011;26359;48.750;9.314;2024-01-11T08:14:51;80.60;;;39.22;;
40675;SDS011;26359;48.750;9.314;2024-01-11T08:17:17;74.90;;;37.38;;
40675;SDS011;26359;48.750;9.314;2024-01-11T08:19:44;79.07;;;37.10;;
40675;SDS011;26359;48.750;9.314;2024-01-11T08:22:09;78.47;;;38.63;;
40675;SDS011;26359;48.750;9.314;2024-01-11T08:24:36;77.53;;;36.95;;
40675;SDS011;26359;48.750;9.314;2024-01-11T08:27:02;79.00;;;38.15;;
40675;SDS011;26359;48.750;9.314;2024-01-11T08:29:27;83.22;;;38.95;;
40675;SDS011;26359;48.750;9.314;2024-01-11T08:31:53;79.63;;;38.22;;
40675;SDS011;26359;48.750;9.314;2024-01-11T08:34:19;79.25;;;38.00;;
40675;SDS011;26359;48.750;9.314;2024-01-11T08:36:45;81.82;;;40.03;;
40675;SDS011;26359;48.750;9.314;2024-01-11T08:39:11;80.38;;;38.42;;
40675;SDS011;26359;48.750;9.314;2024-01-11T08:41:38;77.30;;;37.13;;
40675;SDS011;26359;48.750;9.314;2024-01-11T08:44:04;77.22;;;37.15;;
40675;SDS011;26359;48.750;9.314;2024-01-11T08:46:32;74.90;;;34.00;;
40675;SDS011;26359;48.750;9.314;2024-01-11T08:48:59;97.05;;;46.28;;
40675;SDS011;26359;48.750;9.314;2024-01-11T08:51:26;82.90;;;41.22;;
40675;SDS011;26359;48.750;9.314;2024-01-11T08:53:52;76.40;;;38.22;;
40675;SDS011;26359;48.750;9.314;2024-01-11T08:56:21;87.57;;;40.45;;
40675;SDS011;26359;48.750;9.314;2024-01-11T08:58:47;83.20;;;39.97;;
40675;SDS011;26359;48.750;9.314;2024-01-11T09:01:15;75.78;;;38.33;;
40675;SDS011;26359;48.750;9.314;2024-01-11T09:03:41;82.45;;;41.45;;
40675;SDS011;26359;48.750;9.314;2024-01-11T09:06:06;83.72;;;38.42;;
40675;SDS011;26359;48.750;9.314;2024-01-11T09:08:32;85.85;;;40.17;;
40675;SDS011;26359;48.750;9.314;2024-01-11T09:10:58;80.07;;;39.55;;
40675;SDS011;26359;48.750;9.314;2024-01-11T09:13:24;83.28;;;41.17;;
40675;SDS011;26359;48.750;9.314;2024-01-11T09:15:51;77.82;;;38.97;;
40675;SDS011;26359;48.750;9.314;2024-01-11T09:18:17;78.88;;;38.70;;
40675;SDS011;26359;48.750;9.314;2024-01-11T09:20:43;76.57;;;40.28;;
40675;SDS011;26359;48.750;9.314;2024-01-11T09:23:08;77.38;;;40.45;;
40675;SDS011;26359;48.750;9.314;2024-01-11T09:25:34;76.05;;;40.25;;
40675;SDS011;26359;48.750;9.314;2024-01-11T09:28:00;75.85;;;41.17;;
40675;SDS011;26359;48.750;9.314;2024-01-11T09:30:25;77.07;;;44.00;;
40675;SDS011;26359;48.750;9.314;2024-01-11T09:32:51;78.05;;;43.90;;
40675;SDS011;26359;48.750;9.314;2024-01-11T09:35:17;73.93;;;41.33;;
40675;SDS011;26359;48.750;9.314;2024-01-11T09:37:42;71.45;;;40.13;;
40675;SDS011;26359;48.750;9.314;2024-01-11T09:40:11;71.15;;;38.63;;
40675;SDS011;26359;48.750;9.314;2024-01-11T09:42:36;72.25;;;42.03;;
40675;SDS011;26359;48.750;9.314;2024-01-11T09:45:02;76.20;;;45.13;;
40675;SDS011;26359;48.750;9.314;2024-01-11T09:47:49;75.00;;;39.28;;
40675;SDS011;26359;48.750;9.314;2024-01-11T09:50:16;72.53;;;40.08;;
40675;SDS011;26359;48.750;9.314;2024-01-11T09:52:45;73.03;;;41.90;;
40675;SDS011;26359;48.750;9.314;2024-01-11T09:55:14;80.82;;;42.08;;
40675;SDS011;26359;48.750;9.314;2024-01-11T09:57:42;68.93;;;40.80;;
40675;SDS011;26359;48.750;9.314;2024-01-11T10:00:10;66.57;;;41.38;;
40675;SDS011;26359;48.750;9.314;2024-01-11T10:02:38;69.32;;;40.47;;
40675;SDS011;26359;48.750;9.314;2024-01-11T10:05:05;68.85;;;41.78;;
40675;SDS011;26359;48.750;9.314;2024-01-11T10:07:31;65.32;;;38.85;;
40675;SDS011;26359;48.750;9.314;2024-01-11T10:09:58;70.40;;;40.42;;
40675;SDS011;26359;48.750;9.314;2024-01-11T10:12:25;68.20;;;38.92;;
40675;SDS011;26359;48.750;9.314;2024-01-11T10:14:51;73.00;;;40.13;;
40675;SDS011;26359;48.750;9.314;2024-01-11T10:17:17;69.47;;;41.60;;
40675;SDS011;26359;48.750;9.314;2024-01-11T10:19:43;70.78;;;39.97;;
40675;SDS011;26359;48.750;9.314;2024-01-11T10:22:09;69.70;;;37.22;;
40675;SDS011;26359;48.750;9.314;2024-01-11T10:24:37;68.00;;;37.25;;
40675;SDS011;26359;48.750;9.314;2024-01-11T10:27:04;64.25;;;37.63;;
40675;SDS011;26359;48.750;9.314;2024-01-11T10:29:31;66.57;;;37.90;;
40675;SDS011;26359;48.750;9.314;2024-01-11T10:31:56;66.60;;;37.80;;
40675;SDS011;26359;48.750;9.314;2024-01-11T10:34:25;68.75;;;39.35;;
40675;SDS011;26359;48.750;9.314;2024-01-11T10:36:50;69.30;;;38.58;;
40675;SDS011;26359;48.750;9.314;2024-01-11T10:39:16;69.38;;;39.70;;
40675;SDS011;26359;48.750;9.314;2024-01-11T10:41:47;64.47;;;37.40;;
40675;SDS011;26359;48.750;9.314;2024-01-11T10:44:18;69.38;;;39.33;;
40675;SDS011;26359;48.750;9.314;2024-01-11T10:46:47;68.53;;;39.80;;
40675;SDS011;26359;48.750;9.314;2024-01-11T10:49:17;68.32;;;39.30;;
40675;SDS011;26359;48.750;9.314;2024-01-11T10:51:53;69.70;;;37.75;;
40675;SDS011;26359;48.750;9.314;2024-01-11T10:54:25;66.18;;;38.28;;
40675;SDS011;26359;48.750;9.314;2024-01-11T10:56:53;63.85;;;38.40;;
40675;SDS011;26359;48.750;9.314;2024-01-11T10:59:20;62.33;;;37.95;;
40675;SDS011;26359;48.750;9.314;2024-01-11T11:01:53;65.45;;;38.78;;
40675;SDS011;26359;48.750;9.314;2024-01-11T11:04:22;62.95;;;37.63;;
40675;SDS011;26359;48.750;9.314;2024-01-11T11:06:50;70.25;;;38.40;;
40675;SDS011;26359;48.750;9.314;2024-01-11T11:09:19;65.05;;;38.78;;
40675;SDS011;26359;48.750;9.314;2024-01-11T11:11:46;60.53;;;35.85;;
40675;SDS011;26359;48.750;9.314;2024-01-11T11:14:14;65.55;;;38.13;;
40675;SDS011;26359;48.750;9.314;2024-01-11T11:16:40;64.63;;;37.95;;
40675;SDS011;26359;48.750;9.314;2024-01-11T11:19:06;63.30;;;37.80;;
40675;SDS011;26359;48.750;9.314;2024-01-11T11:21:32;63.05;;;36.20;;
40675;SDS011;26359;48.750;9.314;2024-01-11T11:23:57;60.58;;;36.78;;
40675;SDS011;26359;48.750;9.314;2024-01-11T11:26:23;62.83;;;36.80;;
40675;SDS011;26359;48.750;9.314;2024-01-11T11:28:51;58.03;;;36.03;;
40675;SDS011;26359;48.750;9.314;2024-01-11T11:31:35;61.50;;;35.80;;
40675;SDS011;26359;48.750;9.314;2024-01-11T11:34:05;64.93;;;36.15;;
40675;SDS011;26359;48.750;9.314;2024-01-11T11:36:31;57.67;;;35.97;;
40675;SDS011;26359;48.750;9.314;2024-01-11T11:38:59;57.70;;;35.22;;
40675;SDS011;26359;48.750;9.314;2024-01-11T11:41:31;58.42;;;36.45;;
40675;SDS011;26359;48.750;9.314;2024-01-11T11:44:01;60.13;;;37.75;;
40675;SDS011;26359;48.750;9.314;2024-01-11T11:46:27;57.60;;;36.22;;
40675;SDS011;26359;48.750;9.314;2024-01-11T11:48:53;59.15;;;37.72;;
40675;SDS011;26359;48.750;9.314;2024-01-11T11:51:20;60.95;;;36.67;;
40675;SDS011;26359;48.750;9.314;2024-01-11T11:53:47;60.03;;;37.58;;
40675;SDS011;26359;48.750;9.314;2024-01-11T11:56:14;62.85;;;37.10;;
40675;SDS011;26359;48.750;9.314;2024-01-11T11:58:42;57.72;;;37.15;;
40675;SDS011;26359;48.750;9.314;2024-01-11T12:01:09;62.83;;;39.72;;
40675;SDS011;26359;48.750;9.314;2024-01-11T12:03:40;58.65;;;38.47;;
40675;SDS011;26359;48.750;9.314;2024-01-11T12:06:07;61.85;;;38.17;;
40675;SDS011;26359;48.750;9.314;2024-01-11T12:08:34;57.55;;;37.15;;
40675;SDS011;26359;48.750;9.314;2024-01-11T12:11:00;56.45;;;36.78;;
40675;SDS011;26359;48.750;9.314;2024-01-11T12:13:26;61.47;;;37.47;;
40675;SDS011;26359;48.750;9.314;2024-01-11T12:15:52;57.28;;;36.80;;
40675;SDS011;26359;48.750;9.314;2024-01-11T12:18:17;63.28;;;37.88;;
40675;SDS011;26359;48.750;9.314;2024-01-11T12:20:43;57.67;;;37.08;;
40675;SDS011;26359;48.750;9.314;2024-01-11T12:23:09;58.17;;;38.25;;
40675;SDS011;26359;48.750;9.314;2024-01-11T12:25:35;61.28;;;37.92;;
40675;SDS011;26359;48.750;9.314;2024-01-11T12:28:01;66.68;;;38.50;;
40675;SDS011;26359;48.750;9.314;2024-01-11T12:30:27;55.38;;;35.92;;
40675;SDS011;26359;48.750;9.314;2024-01-11T12:32:53;66.22;;;38.58;;
40675;SDS011;26359;48.750;9.314;2024-01-11T12:35:20;58.95;;;35.67;;
40675;SDS011;26359;48.750;9.314;2024-01-11T12:37:55;61.53;;;36.92;;
40675;SDS011;26359;48.750;9.314;2024-01-11T12:40:24;65.07;;;40.35;;
40675;SDS011;26359;48.750;9.314;2024-01-11T12:42:52;57.17;;;35.97;;
40675;SDS011;26359;48.750;9.314;2024-01-11T12:45:17;64.32;;;38.65;;
40675;SDS011;26359;48.750;9.314;2024-01-11T12:47:44;60.10;;;36.65;;
40675;SDS011;26359;48.750;9.314;2024-01-11T12:50:11;58.67;;;37.58;;
40675;SDS011;26359;48.750;9.314;2024-01-11T12:52:37;58.33;;;36.33;;
40675;SDS011;26359;48.750;9.314;2024-01-11T12:55:03;61.33;;;38.05;;
40675;SDS011;26359;48.750;9.314;2024-01-11T12:57:29;59.92;;;38.17;;
40675;SDS011;26359;48.750;9.314;2024-01-11T12:59:55;56.83;;;36.55;;
40675;SDS011;26359;48.750;9.314;2024-01-11T13:02:38;58.45;;;35.33;;
40675;SDS011;26359;48.750;9.314;2024-01-11T13:05:04;61.17;;;37.05;;
40675;SDS011;26359;48.750;9.314;2024-01-11T13:07:30;58.75;;;36.60;;
40675;SDS011;26359;48.750;9.314;2024-01-11T13:09:57;64.55;;;35.67;;
40675;SDS011;26359;48.750;9.314;2024-01-11T13:12:22;61.13;;;37.03;;
40675;SDS011;26359;48.750;9.314;2024-01-11T13:14:48;60.28;;;36.45;;
40675;SDS011;26359;48.750;9.314;2024-01-11T13:17:15;61.95;;;37.60;;
40675;SDS011;26359;48.750;9.314;2024-01-11T13:19:41;59.90;;;35.88;;
40675;SDS011;26359;48.750;9.314;2024-01-11T13:22:06;60.47;;;36.70;;
40675;SDS011;26359;48.750;9.314;2024-01-11T13:24:32;58.20;;;35.58;;
40675;SDS011;26359;48.750;9.314;2024-01-11T13:26:57;61.67;;;37.88;;
40675;SDS011;26359;48.750;9.314;2024-01-11T13:29:23;64.45;;;37.55;;
40675;SDS011;26359;48.750;9.314;2024-01-11T13:31:49;60.58;;;36.85;;
40675;SDS011;26359;48.750;9.314;2024-01-11T13:34:14;61.78;;;37.38;;
40675;SDS011;26359;48.750;9.314;2024-01-11T13:36:40;67.93;;;39.50;;
40675;SDS011;26359;48.750;9.314;2024-01-11T13:39:06;67.30;;;38.95;;
40675;SDS011;26359;48.750;9.314;2024-01-11T13:41:33;61.03;;;37.00;;
40675;SDS011;26359;48.750;9.314;2024-01-11T13:43:59;65.15;;;38.38;;
40675;SDS011;26359;48.750;9.314;2024-01-11T13:46:25;64.32;;;38.90;;
40675;SDS011;26359;48.750;9.314;2024-01-11T13:48:50;64.78;;;38.88;;
40675;SDS011;26359;48.750;9.314;2024-01-11T13:51:16;63.70;;;38.50;;
40675;SDS011;26359;48.750;9.314;2024-01-11T13:53:42;64.47;;;39.97;;
40675;SDS011;26359;48.750;9.314;2024-01-11T13:56:07;63.75;;;38.45;;
40675;SDS011;26359;48.750;9.314;2024-01-11T13:58:33;64.30;;;38.85;;
40675;SDS011;26359;48.750;9.314;2024-01-11T14:00:59;65.28;;;39.30;;
40675;SDS011;26359;48.750;9.314;2024-01-11T14:03:24;63.90;;;39.00;;
40675;SDS011;26359;48.750;9.314;2024-01-11T14:05:50;65.88;;;38.05;;
40675;SDS011;26359;48.750;9.314;2024-01-11T14:08:15;58.22;;;37.42;;
40675;SDS011;26359;48.750;9.314;2024-01-11T14:10:41;59.83;;;35.78;;
40675;SDS011;26359;48.750;9.314;2024-01-11T14:13:07;63.67;;;36.95;;
40675;SDS011;26359;48.750;9.314;2024-01-11T14:15:32;60.90;;;37.08;;